sensor_id;sensor_type;location;lat;lon;timestamp;P1;durP1;ratioP1;P2;durP2;ratioP2
55063;SDS011;40963;52.168;21.296;2023-12-14T00:02:03;47.03;;;14.77;;
55063;SDS011;40963;52.168;21.296;2023-12-14T00:04:29;47.03;;;15.57;;
55063;SDS011;40963;52.168;21.296;2023-12-14T00:06:54;43.22;;;14.35;;
55063;SDS011;40963;52.168;21.296;2023-12-14T00:09:20;42.03;;;15.48;;
55063;SDS011;40963;52.168;21.296;2023-12-14T00:11:46;52.92;;;16.38;;
55063;SDS011;40963;52.168;21.296;2023-12-14T00:14:11;39.05;;;14.80;;
55063;SDS011;40963;52.168;21.296;2023-12-14T00:16:37;40.15;;;12.30;;
55063;SDS011;40963;52.168;21.296;2023-12-14T00:19:02;44.58;;;14.20;;
55063;SDS011;40963;52.168;21.296;2023-12-14T00:21:28;46.05;;;15.48;;
55063;SDS011;40963;52.168;21.296;2023-12-14T00:23:54;53.85;;;17.17;;
55063;SDS011;40963;52.168;21.296;2023-12-14T00:26:19;43.45;;;16.25;;
55063;SDS011;40963;52.168;21.296;2023-12-14T00:28:45;48.05;;;14.70;;
55063;SDS011;40963;52.168;21.296;2023-12-14T00:31:10;43.90;;;16.50;;
55063;SDS011;40963;52.168;21.296;2023-12-14T00:33:36;49.55;;;16.67;;
55063;SDS011;40963;52.168;21.296;2023-12-14T00:36:01;52.30;;;16.98;;
55063;SDS011;40963;52.168;21.296;2023-12-14T00:38:27;37.28;;;13.85;;
55063;SDS011;40963;52.168;21.296;2023-12-14T00:40:53;36.60;;;14.52;;
55063;SDS011;40963;52.168;21.296;2023-12-14T00:43:18;36.88;;;14.18;;
55063;SDS011;40963;52.168;21.296;2023-12-14T00:45:44;42.92;;;14.65;;
55063;SDS011;40963;52.168;21.296;2023-12-14T00:48:10;30.02;;;12.38;;
55063;SDS011;40963;52.168;21.296;2023-12-14T00:50:36;56.42;;;16.65;;
55063;SDS011;40963;52.168;21.296;2023-12-14T00:53:01;44.28;;;14.93;;
55063;SDS011;40963;52.168;21.296;2023-12-14T00:55:27;51.58;;;16.45;;
55063;SDS011;40963;52.168;21.296;2023-12-14T00:57:53;50.60;;;15.00;;
55063;SDS011;40963;52.168;21.296;2023-12-14T01:00:18;47.92;;;16.58;;
55063;SDS011;40963;52.168;21.296;2023-12-14T01:02:44;43.70;;;18.02;;
55063;SDS011;40963;52.168;21.296;2023-12-14T01:05:09;54.15;;;15.25;;
55063;SDS011;40963;52.168;21.296;2023-12-14T01:07:35;49.42;;;16.15;;
55063;SDS011;40963;52.168;21.296;2023-12-14T01:10:01;39.17;;;15.07;;
55063;SDS011;40963;52.168;21.296;2023-12-14T01:12:27;48.97;;;15.75;;
55063;SDS011;40963;52.168;21.296;2023-12-14T01:14:53;44.38;;;15.75;;
55063;SDS011;40963;52.168;21.296;2023-12-14T01:17:19;46.80;;;15.40;;
55063;SDS011;40963;52.168;21.296;2023-12-14T01:19:44;54.00;;;16.67;;
55063;SDS011;40963;52.168;21.296;2023-12-14T01:22:10;46.75;;;14.63;;
55063;SDS011;40963;52.168;21.296;2023-12-14T01:24:36;57.50;;;20.42;;
55063;SDS011;40963;52.168;21.296;2023-12-14T01:27:02;36.58;;;14.70;;
55063;SDS011;40963;52.168;21.296;2023-12-14T01:29:28;41.15;;;15.68;;
55063;SDS011;40963;52.168;21.296;2023-12-14T01:31:53;41.70;;;15.45;;
55063;SDS011;40963;52.168;21.296;2023-12-14T01:34:19;44.28;;;15.20;;
55063;SDS011;40963;52.168;21.296;2023-12-14T01:36:44;44.65;;;15.55;;
55063;SDS011;40963;52.168;21.296;2023-12-14T01:39:10;44.28;;;16.20;;
55063;SDS011;40963;52.168;21.296;2023-12-14T01:41:36;49.65;;;18.02;;
55063;SDS011;40963;52.168;21.296;2023-12-14T01:44:01;41.55;;;14.20;;
55063;SDS011;40963;52.168;21.296;2023-12-14T01:46:27;29.27;;;12.07;;
55063;SDS011;40963;52.168;21.296;2023-12-14T01:48:53;29.88;;;12.70;;
55063;SDS011;40963;52.168;21.296;2023-12-14T01:51:18;48.33;;;17.88;;
55063;SDS011;40963;52.168;21.296;2023-12-14T01:53:44;41.85;;;14.35;;
55063;SDS011;40963;52.168;21.296;2023-12-14T01:56:10;43.22;;;14.48;;
55063;SDS011;40963;52.168;21.296;2023-12-14T01:58:36;34.58;;;12.35;;
55063;SDS011;40963;52.168;21.296;2023-12-14T02:01:10;36.30;;;13.52;;
55063;SDS011;40963;52.168;21.296;2023-12-14T02:03:48;32.58;;;13.20;;
55063;SDS011;40963;52.168;21.296;2023-12-14T02:06:15;36.70;;;13.60;;
55063;SDS011;40963;52.168;21.296;2023-12-14T02:08:41;34.40;;;12.95;;
55063;SDS011;40963;52.168;21.296;2023-12-14T02:11:07;45.65;;;14.15;;
55063;SDS011;40963;52.168;21.296;2023-12-14T02:13:33;35.13;;;12.60;;
55063;SDS011;40963;52.168;21.296;2023-12-14T02:15:59;40.28;;;14.07;;
55063;SDS011;40963;52.168;21.296;2023-12-14T02:18:24;39.22;;;14.23;;
55063;SDS011;40963;52.168;21.296;2023-12-14T02:20:50;35.55;;;12.13;;
55063;SDS011;40963;52.168;21.296;2023-12-14T02:23:16;29.23;;;11.20;;
55063;SDS011;40963;52.168;21.296;2023-12-14T02:25:41;38.97;;;13.60;;
55063;SDS011;40963;52.168;21.296;2023-12-14T02:28:07;41.38;;;13.18;;
55063;SDS011;40963;52.168;21.296;2023-12-14T02:30:33;40.40;;;11.27;;
55063;SDS011;40963;52.168;21.296;2023-12-14T02:32:58;43.78;;;15.02;;
55063;SDS011;40963;52.168;21.296;2023-12-14T02:35:24;25.83;;;10.98;;
55063;SDS011;40963;52.168;21.296;2023-12-14T02:37:49;29.40;;;11.63;;
55063;SDS011;40963;52.168;21.296;2023-12-14T02:40:15;23.58;;;9.38;;
55063;SDS011;40963;52.168;21.296;2023-12-14T02:42:41;34.13;;;12.38;;
55063;SDS011;40963;52.168;21.296;2023-12-14T02:45:07;31.95;;;11.80;;
55063;SDS011;40963;52.168;21.296;2023-12-14T02:47:33;24.02;;;9.20;;
55063;SDS011;40963;52.168;21.296;2023-12-14T02:49:59;19.92;;;8.30;;
55063;SDS011;40963;52.168;21.296;2023-12-14T02:52:24;26.65;;;8.73;;
55063;SDS011;40963;52.168;21.296;2023-12-14T02:54:50;28.55;;;10.82;;
55063;SDS011;40963;52.168;21.296;2023-12-14T02:57:16;23.95;;;10.15;;
55063;SDS011;40963;52.168;21.296;2023-12-14T02:59:41;30.42;;;10.57;;
55063;SDS011;40963;52.168;21.296;2023-12-14T03:02:07;24.40;;;9.65;;
55063;SDS011;40963;52.168;21.296;2023-12-14T03:04:32;30.17;;;11.40;;
55063;SDS011;40963;52.168;21.296;2023-12-14T03:06:58;29.73;;;8.68;;
55063;SDS011;40963;52.168;21.296;2023-12-14T03:09:27;30.50;;;11.30;;
55063;SDS011;40963;52.168;21.296;2023-12-14T03:11:56;21.50;;;8.98;;
55063;SDS011;40963;52.168;21.296;2023-12-14T03:14:22;25.00;;;10.95;;
55063;SDS011;40963;52.168;21.296;2023-12-14T03:16:48;29.38;;;11.15;;
55063;SDS011;40963;52.168;21.296;2023-12-14T03:19:14;23.05;;;10.18;;
55063;SDS011;40963;52.168;21.296;2023-12-14T03:21:40;27.58;;;9.48;;
55063;SDS011;40963;52.168;21.296;2023-12-14T03:24:06;29.27;;;10.77;;
55063;SDS011;40963;52.168;21.296;2023-12-14T03:26:32;26.98;;;10.10;;
55063;SDS011;40963;52.168;21.296;2023-12-14T03:28:58;29.15;;;12.43;;
55063;SDS011;40963;52.168;21.296;2023-12-14T03:31:23;33.45;;;11.75;;
55063;SDS011;40963;52.168;21.296;2023-12-14T03:33:49;26.27;;;12.00;;
55063;SDS011;40963;52.168;21.296;2023-12-14T03:36:14;28.95;;;10.23;;
55063;SDS011;40963;52.168;21.296;2023-12-14T03:38:40;33.63;;;10.20;;
55063;SDS011;40963;52.168;21.296;2023-12-14T03:41:06;30.40;;;11.23;;
55063;SDS011;40963;52.168;21.296;2023-12-14T03:43:31;31.52;;;10.25;;
55063;SDS011;40963;52.168;21.296;2023-12-14T03:45:57;28.40;;;10.88;;
55063;SDS011;40963;52.168;21.296;2023-12-14T03:48:22;26.23;;;10.23;;
55063;SDS011;40963;52.168;21.296;2023-12-14T03:50:48;33.47;;;11.75;;
55063;SDS011;40963;52.168;21.296;2023-12-14T03:53:13;28.60;;;9.93;;
55063;SDS011;40963;52.168;21.296;2023-12-14T03:55:39;22.88;;;11.27;;
55063;SDS011;40963;52.168;21.296;2023-12-14T03:58:04;31.40;;;11.25;;
55063;SDS011;40963;52.168;21.296;2023-12-14T04:00:30;27.50;;;11.70;;
55063;SDS011;40963;52.168;21.296;2023-12-14T04:02:56;31.35;;;9.30;;
55063;SDS011;40963;52.168;21.296;2023-12-14T04:05:21;29.20;;;9.50;;
55063;SDS011;40963;52.168;21.296;2023-12-14T04:07:47;19.33;;;8.77;;
55063;SDS011;40963;52.168;21.296;2023-12-14T04:10:13;26.63;;;10.48;;
55063;SDS011;40963;52.168;21.296;2023-12-14T04:12:39;35.92;;;11.23;;
55063;SDS011;40963;52.168;21.296;2023-12-14T04:15:06;29.55;;;11.38;;
55063;SDS011;40963;52.168;21.296;2023-12-14T04:17:33;33.65;;;11.23;;
55063;SDS011;40963;52.168;21.296;2023-12-14T04:19:59;30.35;;;12.15;;
55063;SDS011;40963;52.168;21.296;2023-12-14T04:22:25;29.70;;;11.50;;
55063;SDS011;40963;52.168;21.296;2023-12-14T04:24:51;25.67;;;12.07;;
55063;SDS011;40963;52.168;21.296;2023-12-14T04:27:16;32.72;;;11.73;;
55063;SDS011;40963;52.168;21.296;2023-12-14T04:29:42;30.70;;;12.95;;
55063;SDS011;40963;52.168;21.296;2023-12-14T04:32:08;22.15;;;8.82;;
55063;SDS011;40963;52.168;21.296;2023-12-14T04:34:34;26.38;;;9.85;;
55063;SDS011;40963;52.168;21.296;2023-12-14T04:37:00;34.10;;;12.20;;
55063;SDS011;40963;52.168;21.296;2023-12-14T04:39:25;24.17;;;8.52;;
55063;SDS011;40963;52.168;21.296;2023-12-14T04:41:51;27.63;;;10.07;;
55063;SDS011;40963;52.168;21.296;2023-12-14T04:44:17;23.40;;;9.73;;
55063;SDS011;40963;52.168;21.296;2023-12-14T04:46:43;28.35;;;11.10;;
55063;SDS011;40963;52.168;21.296;2023-12-14T04:49:09;34.88;;;12.00;;
55063;SDS011;40963;52.168;21.296;2023-12-14T04:51:35;33.95;;;10.10;;
55063;SDS011;40963;52.168;21.296;2023-12-14T04:54:01;34.85;;;10.55;;
55063;SDS011;40963;52.168;21.296;2023-12-14T04:56:27;32.63;;;10.88;;
55063;SDS011;40963;52.168;21.296;2023-12-14T04:58:52;26.20;;;10.35;;
55063;SDS011;40963;52.168;21.296;2023-12-14T05:01:18;26.42;;;10.73;;
55063;SDS011;40963;52.168;21.296;2023-12-14T05:03:44;28.48;;;12.02;;
55063;SDS011;40963;52.168;21.296;2023-12-14T05:06:09;25.02;;;10.32;;
55063;SDS011;40963;52.168;21.296;2023-12-14T05:08:35;29.08;;;11.00;;
55063;SDS011;40963;52.168;21.296;2023-12-14T05:11:00;30.27;;;10.65;;
55063;SDS011;40963;52.168;21.296;2023-12-14T05:13:26;27.23;;;8.88;;
55063;SDS011;40963;52.168;21.296;2023-12-14T05:15:51;24.17;;;9.63;;
55063;SDS011;40963;52.168;21.296;2023-12-14T05:18:17;39.85;;;12.23;;
55063;SDS011;40963;52.168;21.296;2023-12-14T05:20:43;24.02;;;9.50;;
55063;SDS011;40963;52.168;21.296;2023-12-14T05:23:10;28.45;;;11.25;;
55063;SDS011;40963;52.168;21.296;2023-12-14T05:25:39;26.40;;;10.73;;
55063;SDS011;40963;52.168;21.296;2023-12-14T05:28:05;22.70;;;10.38;;
55063;SDS011;40963;52.168;21.296;2023-12-14T05:30:30;26.30;;;9.55;;
55063;SDS011;40963;52.168;21.296;2023-12-14T05:32:56;19.73;;;9.18;;
55063;SDS011;40963;52.168;21.296;2023-12-14T05:35:21;26.60;;;11.00;;
55063;SDS011;40963;52.168;21.296;2023-12-14T05:37:47;20.92;;;9.55;;
55063;SDS011;40963;52.168;21.296;2023-12-14T05:40:13;27.08;;;10.63;;
55063;SDS011;40963;52.168;21.296;2023-12-14T05:42:39;25.63;;;10.25;;
55063;SDS011;40963;52.168;21.296;2023-12-14T05:45:05;21.70;;;9.60;;
55063;SDS011;40963;52.168;21.296;2023-12-14T05:47:31;18.00;;;8.43;;
55063;SDS011;40963;52.168;21.296;2023-12-14T05:49:59;22.65;;;8.95;;
55063;SDS011;40963;52.168;21.296;2023-12-14T05:52:25;23.65;;;8.75;;
55063;SDS011;40963;52.168;21.296;2023-12-14T05:54:51;25.75;;;9.43;;
55063;SDS011;40963;52.168;21.296;2023-12-14T05:57:16;23.00;;;9.52;;
55063;SDS011;40963;52.168;21.296;2023-12-14T05:59:42;21.77;;;8.43;;
55063;SDS011;40963;52.168;21.296;2023-12-14T06:02:08;32.47;;;10.45;;
55063;SDS011;40963;52.168;21.296;2023-12-14T06:04:34;18.85;;;7.88;;
55063;SDS011;40963;52.168;21.296;2023-12-14T06:06:59;29.92;;;11.23;;
55063;SDS011;40963;52.168;21.296;2023-12-14T06:09:25;26.30;;;8.88;;
55063;SDS011;40963;52.168;21.296;2023-12-14T06:12:02;24.58;;;9.05;;
55063;SDS011;40963;52.168;21.296;2023-12-14T06:14:29;20.20;;;8.15;;
55063;SDS011;40963;52.168;21.296;2023-12-14T06:16:55;24.63;;;8.55;;
55063;SDS011;40963;52.168;21.296;2023-12-14T06:19:21;30.67;;;9.68;;
55063;SDS011;40963;52.168;21.296;2023-12-14T06:21:47;26.77;;;9.98;;
55063;SDS011;40963;52.168;21.296;2023-12-14T06:24:13;23.08;;;8.57;;
55063;SDS011;40963;52.168;21.296;2023-12-14T06:26:42;22.48;;;9.32;;
55063;SDS011;40963;52.168;21.296;2023-12-14T06:29:08;22.33;;;9.90;;
55063;SDS011;40963;52.168;21.296;2023-12-14T06:31:34;23.63;;;8.50;;
55063;SDS011;40963;52.168;21.296;2023-12-14T06:34:00;29.70;;;10.30;;
55063;SDS011;40963;52.168;21.296;2023-12-14T06:36:28;23.98;;;9.80;;
55063;SDS011;40963;52.168;21.296;2023-12-14T06:38:57;23.20;;;9.20;;
55063;SDS011;40963;52.168;21.296;2023-12-14T06:41:24;24.15;;;9.30;;
55063;SDS011;40963;52.168;21.296;2023-12-14T06:43:51;26.30;;;9.65;;
55063;SDS011;40963;52.168;21.296;2023-12-14T06:46:17;29.70;;;10.70;;
55063;SDS011;40963;52.168;21.296;2023-12-14T06:48:46;33.15;;;9.77;;
55063;SDS011;40963;52.168;21.296;2023-12-14T06:51:11;30.13;;;9.18;;
55063;SDS011;40963;52.168;21.296;2023-12-14T06:53:40;26.65;;;9.70;;
55063;SDS011;40963;52.168;21.296;2023-12-14T06:56:08;30.02;;;10.32;;
55063;SDS011;40963;52.168;21.296;2023-12-14T06:58:36;31.00;;;10.25;;
55063;SDS011;40963;52.168;21.296;2023-12-14T07:01:05;24.90;;;9.88;;
55063;SDS011;40963;52.168;21.296;2023-12-14T07:03:31;22.27;;;8.73;;
55063;SDS011;40963;52.168;21.296;2023-12-14T07:05:57;26.73;;;9.60;;
55063;SDS011;40963;52.168;21.296;2023-12-14T07:08:23;27.50;;;10.23;;
55063;SDS011;40963;52.168;21.296;2023-12-14T07:10:49;28.08;;;9.63;;
55063;SDS011;40963;52.168;21.296;2023-12-14T07:13:14;21.85;;;8.77;;
55063;SDS011;40963;52.168;21.296;2023-12-14T07:15:40;24.38;;;8.23;;
55063;SDS011;40963;52.168;21.296;2023-12-14T07:18:06;26.65;;;8.93;;
55063;SDS011;40963;52.168;21.296;2023-12-14T07:20:31;26.23;;;9.57;;
55063;SDS011;40963;52.168;21.296;2023-12-14T07:22:57;21.95;;;7.85;;
55063;SDS011;40963;52.168;21.296;2023-12-14T07:25:22;32.92;;;10.10;;
55063;SDS011;40963;52.168;21.296;2023-12-14T07:27:48;25.15;;;9.93;;
55063;SDS011;40963;52.168;21.296;2023-12-14T07:30:14;20.77;;;8.63;;
55063;SDS011;40963;52.168;21.296;2023-12-14T07:32:39;31.60;;;8.85;;
55063;SDS011;40963;52.168;21.296;2023-12-14T07:35:05;25.70;;;8.38;;
55063;SDS011;40963;52.168;21.296;2023-12-14T07:37:31;35.85;;;9.55;;
55063;SDS011;40963;52.168;21.296;2023-12-14T07:39:57;29.90;;;9.38;;
55063;SDS011;40963;52.168;21.296;2023-12-14T07:42:23;21.33;;;9.18;;
55063;SDS011;40963;52.168;21.296;2023-12-14T07:44:48;41.80;;;11.85;;
55063;SDS011;40963;52.168;21.296;2023-12-14T07:47:14;17.23;;;8.18;;
55063;SDS011;40963;52.168;21.296;2023-12-14T07:49:40;26.77;;;9.15;;
55063;SDS011;40963;52.168;21.296;2023-12-14T07:52:05;22.98;;;9.10;;
55063;SDS011;40963;52.168;21.296;2023-12-14T07:54:31;16.25;;;7.80;;
55063;SDS011;40963;52.168;21.296;2023-12-14T07:56:57;15.45;;;6.68;;
55063;SDS011;40963;52.168;21.296;2023-12-14T07:59:22;22.52;;;7.15;;
55063;SDS011;40963;52.168;21.296;2023-12-14T08:01:48;21.13;;;7.93;;
55063;SDS011;40963;52.168;21.296;2023-12-14T08:04:14;19.50;;;9.48;;
55063;SDS011;40963;52.168;21.296;2023-12-14T08:06:39;21.20;;;9.40;;
55063;SDS011;40963;52.168;21.296;2023-12-14T08:09:05;27.92;;;9.82;;
55063;SDS011;40963;52.168;21.296;2023-12-14T08:11:31;20.02;;;8.60;;
55063;SDS011;40963;52.168;21.296;2023-12-14T08:13:57;23.05;;;8.63;;
55063;SDS011;40963;52.168;21.296;2023-12-14T08:16:23;18.73;;;7.93;;
55063;SDS011;40963;52.168;21.296;2023-12-14T08:18:48;18.75;;;7.60;;
55063;SDS011;40963;52.168;21.296;2023-12-14T08:21:14;19.98;;;7.35;;
55063;SDS011;40963;52.168;21.296;2023-12-14T08:23:40;25.50;;;8.38;;
55063;SDS011;40963;52.168;21.296;2023-12-14T08:26:06;28.67;;;8.02;;
55063;SDS011;40963;52.168;21.296;2023-12-14T08:28:33;20.73;;;7.95;;
55063;SDS011;40963;52.168;21.296;2023-12-14T08:30:59;24.80;;;9.35;;
55063;SDS011;40963;52.168;21.296;2023-12-14T08:33:28;18.52;;;6.95;;
55063;SDS011;40963;52.168;21.296;2023-12-14T08:35:53;13.50;;;6.28;;
55063;SDS011;40963;52.168;21.296;2023-12-14T08:38:19;25.42;;;8.57;;
55063;SDS011;40963;52.168;21.296;2023-12-14T08:40:45;27.23;;;8.07;;
55063;SDS011;40963;52.168;21.296;2023-12-14T08:43:10;15.70;;;7.55;;
55063;SDS011;40963;52.168;21.296;2023-12-14T08:45:36;18.30;;;7.55;;
55063;SDS011;40963;52.168;21.296;2023-12-14T08:48:02;23.63;;;8.07;;
55063;SDS011;40963;52.168;21.296;2023-12-14T08:50:28;20.95;;;8.38;;
55063;SDS011;40963;52.168;21.296;2023-12-14T08:52:53;28.17;;;8.23;;
55063;SDS011;40963;52.168;21.296;2023-12-14T08:55:19;25.05;;;9.05;;
55063;SDS011;40963;52.168;21.296;2023-12-14T08:57:44;21.10;;;8.05;;
55063;SDS011;40963;52.168;21.296;2023-12-14T09:00:10;25.10;;;7.43;;
55063;SDS011;40963;52.168;21.296;2023-12-14T09:02:36;18.30;;;7.70;;
55063;SDS011;40963;52.168;21.296;2023-12-14T09:05:02;29.88;;;9.55;;
55063;SDS011;40963;52.168;21.296;2023-12-14T09:07:29;22.75;;;8.57;;
55063;SDS011;40963;52.168;21.296;2023-12-14T09:09:55;20.73;;;8.27;;
55063;SDS011;40963;52.168;21.296;2023-12-14T09:12:21;21.33;;;7.82;;
55063;SDS011;40963;52.168;21.296;2023-12-14T09:14:46;21.85;;;8.15;;
55063;SDS011;40963;52.168;21.296;2023-12-14T09:17:15;22.30;;;8.00;;
55063;SDS011;40963;52.168;21.296;2023-12-14T09:19:41;22.45;;;8.90;;
55063;SDS011;40963;52.168;21.296;2023-12-14T09:22:06;22.48;;;8.40;;
55063;SDS011;40963;52.168;21.296;2023-12-14T09:24:32;15.02;;;6.78;;
55063;SDS011;40963;52.168;21.296;2023-12-14T09:26:57;18.38;;;8.02;;
55063;SDS011;40963;52.168;21.296;2023-12-14T09:29:23;22.77;;;9.38;;
55063;SDS011;40963;52.168;21.296;2023-12-14T09:31:48;22.67;;;7.90;;
55063;SDS011;40963;52.168;21.296;2023-12-14T09:34:15;21.23;;;8.30;;
55063;SDS011;40963;52.168;21.296;2023-12-14T09:36:40;22.42;;;8.00;;
55063;SDS011;40963;52.168;21.296;2023-12-14T09:39:06;24.77;;;9.02;;
55063;SDS011;40963;52.168;21.296;2023-12-14T09:41:36;22.90;;;8.52;;
55063;SDS011;40963;52.168;21.296;2023-12-14T09:44:03;19.98;;;7.55;;
55063;SDS011;40963;52.168;21.296;2023-12-14T09:46:30;14.30;;;7.07;;
55063;SDS011;40963;52.168;21.296;2023-12-14T09:48:56;26.00;;;8.50;;
55063;SDS011;40963;52.168;21.296;2023-12-14T09:51:24;26.40;;;9.13;;
55063;SDS011;40963;52.168;21.296;2023-12-14T09:53:51;24.42;;;8.57;;
55063;SDS011;40963;52.168;21.296;2023-12-14T09:56:22;18.90;;;8.10;;
55063;SDS011;40963;52.168;21.296;2023-12-14T09:58:49;19.70;;;9.05;;
55063;SDS011;40963;52.168;21.296;2023-12-14T10:01:21;22.25;;;9.13;;
55063;SDS011;40963;52.168;21.296;2023-12-14T10:06:36;19.90;;;8.68;;
55063;SDS011;40963;52.168;21.296;2023-12-14T10:09:02;17.88;;;8.20;;
55063;SDS011;40963;52.168;21.296;2023-12-14T10:11:29;14.10;;;7.45;;
55063;SDS011;40963;52.168;21.296;2023-12-14T10:13:55;17.00;;;7.18;;
55063;SDS011;40963;52.168;21.296;2023-12-14T10:16:27;20.05;;;7.88;;
55063;SDS011;40963;52.168;21.296;2023-12-14T10:18:55;20.00;;;9.13;;
55063;SDS011;40963;52.168;21.296;2023-12-14T10:21:22;20.63;;;8.88;;
55063;SDS011;40963;52.168;21.296;2023-12-14T10:23:48;15.05;;;6.88;;
55063;SDS011;40963;52.168;21.296;2023-12-14T10:26:14;22.95;;;8.52;;
55063;SDS011;40963;52.168;21.296;2023-12-14T10:28:40;21.77;;;7.68;;
55063;SDS011;40963;52.168;21.296;2023-12-14T10:31:06;16.13;;;6.28;;
55063;SDS011;40963;52.168;21.296;2023-12-14T10:33:32;14.73;;;7.90;;
55063;SDS011;40963;52.168;21.296;2023-12-14T10:35:58;21.35;;;9.10;;
55063;SDS011;40963;52.168;21.296;2023-12-14T10:38:25;14.48;;;7.20;;
55063;SDS011;40963;52.168;21.296;2023-12-14T10:40:53;20.38;;;8.15;;
55063;SDS011;40963;52.168;21.296;2023-12-14T10:43:19;13.18;;;6.50;;
55063;SDS011;40963;52.168;21.296;2023-12-14T10:45:45;15.52;;;6.45;;
55063;SDS011;40963;52.168;21.296;2023-12-14T10:48:16;18.95;;;8.85;;
55063;SDS011;40963;52.168;21.296;2023-12-14T10:50:45;24.60;;;8.15;;
55063;SDS011;40963;52.168;21.296;2023-12-14T10:53:13;13.38;;;6.68;;
55063;SDS011;40963;52.168;21.296;2023-12-14T10:55:42;13.70;;;7.00;;
55063;SDS011;40963;52.168;21.296;2023-12-14T10:58:09;15.45;;;6.55;;
55063;SDS011;40963;52.168;21.296;2023-12-14T11:00:36;19.33;;;7.70;;
55063;SDS011;40963;52.168;21.296;2023-12-14T11:03:03;20.90;;;7.07;;
55063;SDS011;40963;52.168;21.296;2023-12-14T11:05:33;14.73;;;7.75;;
55063;SDS011;40963;52.168;21.296;2023-12-14T11:08:00;12.55;;;6.40;;
55063;SDS011;40963;52.168;21.296;2023-12-14T11:10:37;22.10;;;7.20;;
55063;SDS011;40963;52.168;21.296;2023-12-14T11:15:39;16.95;;;7.07;;
55063;SDS011;40963;52.168;21.296;2023-12-14T11:23:11;12.30;;;6.43;;
55063;SDS011;40963;52.168;21.296;2023-12-14T11:25:42;9.60;;;5.90;;
55063;SDS011;40963;52.168;21.296;2023-12-14T11:28:08;14.30;;;6.88;;
55063;SDS011;40963;52.168;21.296;2023-12-14T11:30:35;20.05;;;7.65;;
55063;SDS011;40963;52.168;21.296;2023-12-14T11:33:02;12.57;;;6.03;;
55063;SDS011;40963;52.168;21.296;2023-12-14T11:35:28;18.88;;;7.55;;
55063;SDS011;40963;52.168;21.296;2023-12-14T11:37:54;18.25;;;7.22;;
55063;SDS011;40963;52.168;21.296;2023-12-14T11:40:25;17.33;;;8.15;;
55063;SDS011;40963;52.168;21.296;2023-12-14T11:43:01;18.25;;;7.20;;
55063;SDS011;40963;52.168;21.296;2023-12-14T11:45:32;19.27;;;7.80;;
55063;SDS011;40963;52.168;21.296;2023-12-14T11:47:59;16.70;;;7.03;;
55063;SDS011;40963;52.168;21.296;2023-12-14T11:50:26;16.70;;;8.15;;
55063;SDS011;40963;52.168;21.296;2023-12-14T11:52:52;17.48;;;7.20;;
55063;SDS011;40963;52.168;21.296;2023-12-14T11:55:19;29.50;;;9.93;;
55063;SDS011;40963;52.168;21.296;2023-12-14T11:57:46;29.40;;;8.73;;
55063;SDS011;40963;52.168;21.296;2023-12-14T12:00:13;18.02;;;8.10;;
55063;SDS011;40963;52.168;21.296;2023-12-14T12:02:39;16.48;;;7.30;;
55063;SDS011;40963;52.168;21.296;2023-12-14T12:05:08;18.23;;;7.47;;
55063;SDS011;40963;52.168;21.296;2023-12-14T12:07:38;16.80;;;7.70;;
55063;SDS011;40963;52.168;21.296;2023-12-14T12:10:04;14.85;;;7.20;;
55063;SDS011;40963;52.168;21.296;2023-12-14T12:12:32;17.50;;;7.72;;
55063;SDS011;40963;52.168;21.296;2023-12-14T12:14:59;15.18;;;6.90;;
55063;SDS011;40963;52.168;21.296;2023-12-14T12:17:24;16.13;;;6.20;;
55063;SDS011;40963;52.168;21.296;2023-12-14T12:19:51;15.38;;;6.18;;
55063;SDS011;40963;52.168;21.296;2023-12-14T12:22:17;11.68;;;5.95;;
55063;SDS011;40963;52.168;21.296;2023-12-14T12:24:42;12.77;;;6.82;;
55063;SDS011;40963;52.168;21.296;2023-12-14T12:27:08;12.15;;;6.85;;
55063;SDS011;40963;52.168;21.296;2023-12-14T12:29:34;11.15;;;6.07;;
55063;SDS011;40963;52.168;21.296;2023-12-14T12:31:59;16.80;;;6.93;;
55063;SDS011;40963;52.168;21.296;2023-12-14T12:34:25;16.23;;;8.35;;
55063;SDS011;40963;52.168;21.296;2023-12-14T12:36:51;17.15;;;8.30;;
55063;SDS011;40963;52.168;21.296;2023-12-14T12:39:16;15.85;;;7.68;;
55063;SDS011;40963;52.168;21.296;2023-12-14T12:41:42;22.27;;;9.57;;
55063;SDS011;40963;52.168;21.296;2023-12-14T12:44:08;19.67;;;8.73;;
55063;SDS011;40963;52.168;21.296;2023-12-14T12:46:37;21.63;;;9.02;;
55063;SDS011;40963;52.168;21.296;2023-12-14T12:49:03;12.02;;;6.72;;
55063;SDS011;40963;52.168;21.296;2023-12-14T12:51:30;16.67;;;8.45;;
55063;SDS011;40963;52.168;21.296;2023-12-14T12:53:57;17.60;;;7.65;;
55063;SDS011;40963;52.168;21.296;2023-12-14T12:56:24;18.70;;;8.60;;
55063;SDS011;40963;52.168;21.296;2023-12-14T12:58:51;17.73;;;8.75;;
55063;SDS011;40963;52.168;21.296;2023-12-14T13:01:19;18.65;;;8.88;;
55063;SDS011;40963;52.168;21.296;2023-12-14T13:03:46;18.77;;;7.15;;
55063;SDS011;40963;52.168;21.296;2023-12-14T13:06:11;16.92;;;7.30;;
55063;SDS011;40963;52.168;21.296;2023-12-14T13:08:37;20.85;;;8.73;;
55063;SDS011;40963;52.168;21.296;2023-12-14T13:11:03;25.20;;;10.27;;
55063;SDS011;40963;52.168;21.296;2023-12-14T13:13:28;22.58;;;9.38;;
55063;SDS011;40963;52.168;21.296;2023-12-14T13:15:56;19.17;;;8.73;;
55063;SDS011;40963;52.168;21.296;2023-12-14T13:18:21;22.92;;;9.60;;
55063;SDS011;40963;52.168;21.296;2023-12-14T13:20:47;36.53;;;10.68;;
55063;SDS011;40963;52.168;21.296;2023-12-14T13:23:12;23.70;;;9.38;;
55063;SDS011;40963;52.168;21.296;2023-12-14T13:25:38;21.15;;;9.15;;
55063;SDS011;40963;52.168;21.296;2023-12-14T13:28:04;22.92;;;10.00;;
55063;SDS011;40963;52.168;21.296;2023-12-14T13:30:30;22.02;;;10.38;;
55063;SDS011;40963;52.168;21.296;2023-12-14T13:32:56;21.65;;;9.68;;
55063;SDS011;40963;52.168;21.296;2023-12-14T13:35:21;22.83;;;9.05;;
55063;SDS011;40963;52.168;21.296;2023-12-14T13:37:49;12.20;;;6.35;;
55063;SDS011;40963;52.168;21.296;2023-12-14T13:40:15;11.23;;;4.93;;
55063;SDS011;40963;52.168;21.296;2023-12-14T13:42:41;23.23;;;9.32;;
55063;SDS011;40963;52.168;21.296;2023-12-14T13:45:07;25.27;;;7.63;;
55063;SDS011;40963;52.168;21.296;2023-12-14T13:47:33;22.83;;;9.02;;
55063;SDS011;40963;52.168;21.296;2023-12-14T13:50:00;15.32;;;7.47;;
55063;SDS011;40963;52.168;21.296;2023-12-14T13:52:25;20.42;;;8.52;;
55063;SDS011;40963;52.168;21.296;2023-12-14T13:54:51;18.05;;;8.60;;
55063;SDS011;40963;52.168;21.296;2023-12-14T13:57:16;13.85;;;7.30;;
55063;SDS011;40963;52.168;21.296;2023-12-14T13:59:42;25.77;;;7.35;;
55063;SDS011;40963;52.168;21.296;2023-12-14T14:02:07;20.75;;;8.52;;
55063;SDS011;40963;52.168;21.296;2023-12-14T14:04:34;25.05;;;9.63;;
55063;SDS011;40963;52.168;21.296;2023-12-14T14:06:59;17.20;;;8.30;;
55063;SDS011;40963;52.168;21.296;2023-12-14T14:09:25;27.05;;;9.90;;
55063;SDS011;40963;52.168;21.296;2023-12-14T14:11:50;21.10;;;8.02;;
55063;SDS011;40963;52.168;21.296;2023-12-14T14:14:16;23.10;;;8.40;;
55063;SDS011;40963;52.168;21.296;2023-12-14T14:16:42;21.92;;;7.88;;
55063;SDS011;40963;52.168;21.296;2023-12-14T14:19:08;19.25;;;9.18;;
55063;SDS011;40963;52.168;21.296;2023-12-14T14:21:33;24.58;;;9.23;;